createdAt,value
2018-12-17T00:00:56.347Z,-0.12
2018-12-17T00:03:27.158Z,-0.20
2018-12-17T00:05:58.052Z,-0.21
2018-12-17T00:08:31.996Z,-0.26
2018-12-17T00:10:58.554Z,-0.23
2018-12-17T00:13:27.450Z,-0.21
2018-12-17T00:15:56.298Z,-0.27
2018-12-17T00:18:25.278Z,-0.29
2018-12-17T00:20:54.173Z,-0.28
2018-12-17T00:23:23.002Z,-0.34
2018-12-17T00:25:53.806Z,-0.29
2018-12-17T00:28:22.780Z,-0.32
2018-12-17T00:30:52.387Z,-0.21
2018-12-17T00:33:22.564Z,-0.16
2018-12-17T00:35:52.430Z,-0.17
2018-12-17T00:38:21.301Z,-0.17
2018-12-17T00:40:50.245Z,-0.19
2018-12-17T00:43:19.087Z,-0.13
2018-12-17T00:45:48.127Z,-0.15
2018-12-17T00:48:17.115Z,-0.13
2018-12-17T00:50:47.083Z,-0.18
2018-12-17T00:53:15.945Z,-0.13
2018-12-17T00:55:44.876Z,-0.14
2018-12-17T00:58:15.297Z,-0.20
2018-12-17T01:00:44.413Z,-0.24
2018-12-17T01:03:13.247Z,-0.23
2018-12-17T01:05:42.187Z,-0.20
2018-12-17T01:08:11.039Z,-0.24
2018-12-17T01:10:40.031Z,-0.12
2018-12-17T01:13:08.871Z,-0.20
2018-12-17T01:15:38.075Z,-0.20
2018-12-17T01:18:06.907Z,-0.17
2018-12-17T01:20:35.747Z,-0.24
2018-12-17T01:23:04.635Z,-0.04
2018-12-17T01:25:33.599Z,0.03
2018-12-17T01:28:02.491Z,0.01
2018-12-17T01:30:31.630Z,0.11
2018-12-17T01:33:01.548Z,0.10
2018-12-17T01:35:30.560Z,-0.12
2018-12-17T01:37:59.410Z,0.10
2018-12-17T01:40:28.310Z,0.12
2018-12-17T01:42:57.144Z,-0.09
2018-12-17T01:45:26.066Z,-0.20
2018-12-17T01:47:54.898Z,-0.26
2018-12-17T01:50:23.732Z,-0.29
2018-12-17T01:52:52.640Z,-0.16
2018-12-17T01:55:21.485Z,-0.15
2018-12-17T01:57:50.475Z,-0.25
2018-12-17T02:00:19.501Z,-0.27
2018-12-17T02:02:48.399Z,-0.24
2018-12-17T02:05:17.387Z,-0.22
2018-12-17T02:07:46.297Z,-0.14
2018-12-17T02:10:15.222Z,-0.13
2018-12-17T02:12:44.048Z,-0.20
2018-12-17T02:15:12.995Z,-0.26
2018-12-17T02:17:41.837Z,-0.24
2018-12-17T02:20:10.671Z,-0.23
2018-12-17T02:22:39.641Z,-0.18
2018-12-17T02:25:08.575Z,-0.18
2018-12-17T02:27:37.504Z,-0.16
2018-12-17T02:30:06.910Z,-0.11
2018-12-17T02:32:37.843Z,-0.07
2018-12-17T02:35:06.834Z,-0.05
2018-12-17T02:37:35.752Z,-0.04
2018-12-17T02:40:05.638Z,-0.09
2018-12-17T02:42:34.577Z,-0.16
2018-12-17T02:45:03.520Z,-0.15
2018-12-17T02:47:32.451Z,-0.10
2018-12-17T02:50:01.423Z,-0.06
2018-12-17T02:52:30.261Z,-0.02
2018-12-17T02:54:59.172Z,-0.02
2018-12-17T02:57:28.083Z,-0.10
2018-12-17T02:59:56.919Z,-0.17
2018-12-17T03:02:25.851Z,-0.12
2018-12-17T03:04:54.763Z,0.14
2018-12-17T03:07:23.654Z,0.15
2018-12-17T03:09:52.594Z,-0.06
2018-12-17T03:12:21.534Z,-0.12
2018-12-17T03:14:50.425Z,-0.07
2018-12-17T03:17:19.430Z,-0.07
2018-12-17T03:19:48.376Z,-0.08
2018-12-17T03:22:17.327Z,-0.01
2018-12-17T03:24:46.172Z,-0.04
2018-12-17T03:27:15.446Z,-0.08
2018-12-17T03:29:44.411Z,0.02
2018-12-17T03:32:13.271Z,0.07
2018-12-17T03:34:42.192Z,0.05
2018-12-17T03:37:11.052Z,0.07
2018-12-17T03:39:39.894Z,0.10
2018-12-17T03:42:08.910Z,0.17
2018-12-17T03:44:37.906Z,0.13
2018-12-17T03:47:06.748Z,0.04
2018-12-17T03:49:35.606Z,-0.02
2018-12-17T03:52:04.520Z,-0.05
2018-12-17T03:54:33.523Z,-0.06
2018-12-17T03:57:02.534Z,-0.07
2018-12-17T03:59:31.441Z,0.02
2018-12-17T04:02:00.336Z,0.03
2018-12-17T04:04:29.253Z,0.04
2018-12-17T04:06:58.088Z,0.01
2018-12-17T04:09:27.001Z,0.06
2018-12-17T04:11:55.878Z,0.09
2018-12-17T04:14:24.986Z,0.16
2018-12-17T04:16:53.925Z,0.12
2018-12-17T04:19:22.842Z,0.06
2018-12-17T04:21:52.992Z,0.10
2018-12-17T04:24:22.062Z,0.03
2018-12-17T04:26:52.199Z,0.11
2018-12-17T04:29:22.094Z,0.08
2018-12-17T04:31:50.912Z,0.11
2018-12-17T04:34:20.847Z,0.09
2018-12-17T04:36:49.824Z,0.14
2018-12-17T04:39:18.705Z,0.13
2018-12-17T04:41:47.630Z,0.18
2018-12-17T04:44:16.698Z,0.19
2018-12-17T04:46:45.537Z,0.17
2018-12-17T04:49:14.410Z,0.18
2018-12-17T04:51:43.558Z,0.15
2018-12-17T04:54:12.419Z,0.17
2018-12-17T04:56:41.292Z,0.16
2018-12-17T04:59:14.494Z,0.17
2018-12-17T05:01:41.009Z,0.24
2018-12-17T05:04:09.888Z,0.22
2018-12-17T05:06:38.785Z,0.17
2018-12-17T05:09:08.535Z,0.20
2018-12-17T05:11:37.387Z,0.24
2018-12-17T05:14:06.248Z,0.21
2018-12-17T05:16:35.123Z,0.15
2018-12-17T05:19:04.419Z,0.15
2018-12-17T05:21:34.207Z,0.24
2018-12-17T05:24:03.069Z,0.36
2018-12-17T05:26:31.954Z,0.35
2018-12-17T05:29:00.820Z,0.38
2018-12-17T05:31:29.765Z,0.42
2018-12-17T05:33:58.694Z,0.33
2018-12-17T05:36:27.551Z,0.28
2018-12-17T05:38:56.496Z,0.43
2018-12-17T05:41:25.370Z,0.38
2018-12-17T05:43:54.266Z,0.33
2018-12-17T05:46:23.124Z,0.24
2018-12-17T05:48:52.038Z,0.18
2018-12-17T05:51:20.936Z,0.14
2018-12-17T05:53:49.865Z,0.19
2018-12-17T05:56:18.741Z,0.17
2018-12-17T05:58:47.647Z,0.22
2018-12-17T06:01:16.627Z,0.22
2018-12-17T06:03:45.535Z,0.20
2018-12-17T06:06:14.484Z,0.23
2018-12-17T06:08:43.387Z,0.27
2018-12-17T06:11:12.231Z,0.25
2018-12-17T06:13:41.185Z,0.28
2018-12-17T06:16:10.083Z,0.28
2018-12-17T06:18:39.775Z,0.27
2018-12-17T06:21:08.711Z,0.28
2018-12-17T06:23:37.634Z,0.25
2018-12-17T06:26:06.815Z,0.28
2018-12-17T06:28:35.679Z,0.30
2018-12-17T06:31:04.563Z,0.33
2018-12-17T06:33:33.656Z,0.33
2018-12-17T06:36:02.455Z,0.34
2018-12-17T06:38:31.316Z,0.38
2018-12-17T06:41:00.591Z,0.36
2018-12-17T06:43:29.442Z,0.42
2018-12-17T06:45:58.297Z,0.42
2018-12-17T06:48:27.162Z,0.45
2018-12-17T06:50:56.038Z,0.49
2018-12-17T06:53:24.928Z,0.51
2018-12-17T06:55:53.830Z,0.40
2018-12-17T06:58:23.118Z,0.40
2018-12-17T07:00:51.995Z,0.47
2018-12-17T07:03:20.869Z,0.53
2018-12-17T07:05:49.765Z,0.55
2018-12-17T07:08:19.081Z,0.46
2018-12-17T07:10:48.255Z,0.44
2018-12-17T07:13:17.154Z,0.48
2018-12-17T07:15:46.011Z,0.51
2018-12-17T07:18:14.993Z,0.53
2018-12-17T07:20:43.859Z,0.54
2018-12-17T07:23:12.726Z,0.58
2018-12-17T07:25:41.588Z,0.61
2018-12-17T07:28:10.502Z,0.81
2018-12-17T07:30:39.455Z,0.98
2018-12-17T07:33:08.755Z,1.00
2018-12-17T07:35:37.673Z,1.06
2018-12-17T07:38:07.698Z,1.09
2018-12-17T07:40:36.598Z,1.06
2018-12-17T07:43:05.452Z,1.08
2018-12-17T07:45:34.303Z,1.03
2018-12-17T07:48:03.274Z,1.16
2018-12-17T07:50:32.136Z,1.19
2018-12-17T07:53:00.958Z,1.25
2018-12-17T07:55:29.826Z,1.35
2018-12-17T07:57:59.730Z,1.44
2018-12-17T08:00:28.661Z,1.49
2018-12-17T08:02:57.524Z,1.64
2018-12-17T08:05:26.372Z,1.66
2018-12-17T08:07:55.312Z,1.79
2018-12-17T08:10:24.158Z,1.83
2018-12-17T08:12:53.033Z,1.91
2018-12-17T08:15:21.856Z,1.93
2018-12-17T08:18:01.865Z,1.90
2018-12-17T08:20:30.772Z,1.97
2018-12-17T08:22:59.631Z,2.03
2018-12-17T08:25:28.515Z,2.04
2018-12-17T08:27:57.345Z,2.02
2018-12-17T08:30:26.203Z,1.92
2018-12-17T08:32:55.142Z,1.91
2018-12-17T08:35:23.981Z,1.88
2018-12-17T08:37:52.900Z,1.87
2018-12-17T08:40:21.767Z,1.86
2018-12-17T08:42:50.615Z,1.87
2018-12-17T08:45:19.451Z,1.77
2018-12-17T08:47:48.363Z,1.88
2018-12-17T08:50:17.231Z,1.96
2018-12-17T08:52:46.551Z,1.96
2018-12-17T08:55:15.434Z,1.96
2018-12-17T08:57:44.343Z,1.94
2018-12-17T09:00:13.428Z,2.01
2018-12-17T09:02:42.377Z,2.14
2018-12-17T09:05:11.318Z,2.18
2018-12-17T09:07:40.226Z,2.25
2018-12-17T09:10:10.164Z,2.24
2018-12-17T09:12:39.114Z,2.42
2018-12-17T09:15:08.058Z,2.41
2018-12-17T09:17:37.860Z,2.35
2018-12-17T09:20:07.925Z,2.36
2018-12-17T09:22:36.798Z,2.37
2018-12-17T09:25:06.517Z,2.14
2018-12-17T09:27:35.412Z,2.36
2018-12-17T09:30:05.609Z,2.48
2018-12-17T09:32:35.242Z,2.47
2018-12-17T09:35:04.200Z,2.55
2018-12-17T09:37:33.049Z,2.62
2018-12-17T09:40:01.930Z,2.52
2018-12-17T09:42:31.790Z,2.48
2018-12-17T09:45:00.694Z,2.60
2018-12-17T09:47:30.324Z,2.55
2018-12-17T09:49:59.210Z,2.72
2018-12-17T09:52:28.042Z,3.51
2018-12-17T09:54:57.091Z,3.40
2018-12-17T09:57:25.955Z,3.27
2018-12-17T09:59:54.869Z,3.16
2018-12-17T10:02:23.688Z,3.13
2018-12-17T10:04:52.515Z,2.88
2018-12-17T10:07:21.355Z,2.95
2018-12-17T10:09:50.207Z,3.02
2018-12-17T10:12:19.190Z,3.11
2018-12-17T10:14:48.126Z,3.01
2018-12-17T10:17:16.956Z,2.98
2018-12-17T10:19:45.785Z,2.88
2018-12-17T10:22:14.696Z,2.81
2018-12-17T10:24:43.539Z,2.67
2018-12-17T10:27:12.396Z,2.77
2018-12-17T10:29:41.364Z,2.76
2018-12-17T10:32:10.194Z,2.68
2018-12-17T10:34:39.025Z,2.85
2018-12-17T10:37:07.896Z,2.97
2018-12-17T10:39:36.733Z,2.88
2018-12-17T10:42:05.692Z,2.90
2018-12-17T10:44:36.531Z,3.05
2018-12-17T10:47:05.415Z,3.12
2018-12-17T10:49:35.451Z,3.05
2018-12-17T10:52:04.319Z,3.27
2018-12-17T10:54:33.185Z,3.43
2018-12-17T10:57:02.009Z,3.41
2018-12-17T10:59:30.854Z,3.39
2018-12-17T11:02:04.938Z,3.51
2018-12-17T11:04:41.742Z,3.67
2018-12-17T11:07:10.566Z,3.79
2018-12-17T11:09:39.682Z,3.40
2018-12-17T11:12:08.545Z,3.82
2018-12-17T11:14:37.462Z,3.64
2018-12-17T11:17:06.364Z,3.71
2018-12-17T11:19:35.352Z,3.77
2018-12-17T11:22:04.229Z,3.84
2018-12-17T11:24:33.118Z,3.78
2018-12-17T11:27:02.013Z,3.61
2018-12-17T11:29:31.421Z,3.65
2018-12-17T11:32:00.352Z,3.54
2018-12-17T11:34:29.228Z,3.67
2018-12-17T11:37:01.200Z,3.60
2018-12-17T11:39:31.838Z,3.72
2018-12-17T11:42:00.749Z,3.53
2018-12-17T11:44:29.607Z,3.58
2018-12-17T11:46:58.495Z,3.61
2018-12-17T11:49:27.403Z,3.37
2018-12-17T11:51:57.212Z,3.33
2018-12-17T11:54:26.073Z,3.36
2018-12-17T11:59:14.115Z,3.22
2018-12-17T12:01:44.934Z,3.37
2018-12-17T12:04:13.857Z,3.47
2018-12-17T12:06:42.675Z,3.47
2018-12-17T12:09:13.519Z,3.45
2018-12-17T12:11:43.421Z,3.36
2018-12-17T12:14:12.287Z,3.39
2018-12-17T12:16:41.253Z,3.30
2018-12-17T12:19:10.082Z,3.24
2018-12-17T12:21:38.995Z,3.16
2018-12-17T12:24:07.882Z,3.07
2018-12-17T12:26:36.711Z,3.11
2018-12-17T12:29:05.558Z,3.02
2018-12-17T12:31:34.462Z,2.88
2018-12-17T12:34:03.490Z,2.96
2018-12-17T12:36:32.390Z,3.13
2018-12-17T12:39:01.398Z,3.15
2018-12-17T12:41:32.366Z,3.10
2018-12-17T12:44:08.596Z,3.18
2018-12-17T12:46:32.581Z,3.33
2018-12-17T12:49:01.467Z,3.02
2018-12-17T12:51:32.831Z,3.12
2018-12-17T12:54:01.271Z,3.07
2018-12-17T12:56:30.361Z,3.09
2018-12-17T12:58:59.262Z,3.25
2018-12-17T13:01:28.121Z,3.24
2018-12-17T13:03:57.034Z,3.38
2018-12-17T13:06:25.935Z,3.26
2018-12-17T13:08:54.833Z,3.25
2018-12-17T13:11:23.695Z,3.19
2018-12-17T13:13:52.610Z,3.24
2018-12-17T13:16:21.528Z,3.21
2018-12-17T13:18:50.385Z,3.19
2018-12-17T13:21:19.315Z,3.00
2018-12-17T13:23:48.191Z,2.91
2018-12-17T13:26:17.065Z,2.76
2018-12-17T13:28:45.911Z,3.01
2018-12-17T13:31:14.918Z,2.96
2018-12-17T13:33:43.898Z,2.92
2018-12-17T13:36:12.794Z,2.89
2018-12-17T13:38:41.712Z,2.86
2018-12-17T13:41:10.598Z,2.86
2018-12-17T13:43:39.462Z,2.91
2018-12-17T13:46:08.310Z,2.83
2018-12-17T13:48:37.178Z,2.85
2018-12-17T13:51:11.420Z,2.81
2018-12-17T13:53:40.259Z,2.79
2018-12-17T13:56:09.114Z,2.73
2018-12-17T13:58:37.979Z,2.56
2018-12-17T14:01:06.934Z,2.64
2018-12-17T14:03:35.824Z,2.69
2018-12-17T14:06:04.813Z,2.68
2018-12-17T14:08:33.689Z,2.68
2018-12-17T14:11:02.614Z,2.53
2018-12-17T14:13:31.559Z,2.52
2018-12-17T14:16:05.711Z,2.50
2018-12-17T14:19:41.441Z,2.49
2018-12-17T14:22:10.281Z,2.38
2018-12-17T14:24:39.129Z,2.36
2018-12-17T14:27:08.067Z,2.47
2018-12-17T14:29:36.917Z,2.31
2018-12-17T14:32:05.831Z,2.21
2018-12-17T14:34:34.679Z,2.33
2018-12-17T14:37:03.615Z,2.29
2018-12-17T14:39:32.475Z,2.20
2018-12-17T14:42:01.345Z,2.18
2018-12-17T14:44:34.640Z,2.11
2018-12-17T14:47:03.752Z,2.17
2018-12-17T14:49:32.655Z,2.17
2018-12-17T14:52:02.647Z,2.12
2018-12-17T14:54:31.495Z,2.09
2018-12-17T14:57:00.330Z,2.07
2018-12-17T14:59:29.243Z,2.04
2018-12-17T15:01:58.099Z,1.99
2018-12-17T15:04:26.990Z,1.93
2018-12-17T15:06:55.831Z,1.93
2018-12-17T15:09:24.695Z,1.89
2018-12-17T15:11:53.590Z,1.90
2018-12-17T15:14:22.441Z,1.88
2018-12-17T15:16:51.357Z,1.77
2018-12-17T15:19:20.191Z,1.77
2018-12-17T15:21:49.038Z,1.69
2018-12-17T15:24:17.914Z,1.67
2018-12-17T15:26:46.826Z,1.69
2018-12-17T15:29:15.667Z,1.67
2018-12-17T15:31:44.559Z,1.63
2018-12-17T15:34:13.502Z,1.47
2018-12-17T15:36:42.332Z,1.45
2018-12-17T15:39:11.207Z,1.50
2018-12-17T15:41:40.059Z,1.52
2018-12-17T15:44:08.917Z,1.59
2018-12-17T15:46:37.751Z,1.72
2018-12-17T15:49:06.883Z,1.72
2018-12-17T15:51:36.404Z,1.68
2018-12-17T15:54:05.465Z,1.68
2018-12-17T15:56:34.291Z,1.75
2018-12-17T15:59:03.171Z,1.90
2018-12-17T16:01:32.102Z,1.76
2018-12-17T16:04:01.079Z,1.90
2018-12-17T16:06:30.005Z,1.82
2018-12-17T16:08:59.026Z,2.00
2018-12-17T16:11:27.982Z,2.01
2018-12-17T16:13:56.911Z,1.95
2018-12-17T16:16:25.862Z,1.95
2018-12-17T16:18:54.768Z,1.91
2018-12-17T16:21:23.616Z,1.81
2018-12-17T16:23:52.466Z,1.80
2018-12-17T16:26:21.349Z,1.77
2018-12-17T16:28:50.249Z,1.76
2018-12-17T16:31:19.119Z,1.82
2018-12-17T16:33:48.061Z,1.76
2018-12-17T16:36:16.909Z,1.75
2018-12-17T16:38:45.773Z,1.63
2018-12-17T16:41:15.139Z,1.69
2018-12-17T16:43:43.987Z,1.69
2018-12-17T16:46:12.853Z,1.68
2018-12-17T16:48:41.783Z,1.60
2018-12-17T16:51:10.813Z,1.73
2018-12-17T16:53:39.707Z,1.71
2018-12-17T16:56:08.603Z,1.71
2018-12-17T16:58:37.639Z,1.69
2018-12-17T17:01:06.610Z,1.73
2018-12-17T17:03:35.431Z,1.68
2018-12-17T17:06:04.371Z,1.63
2018-12-17T17:08:33.291Z,1.67
2018-12-17T17:11:02.299Z,1.68
2018-12-17T17:13:31.280Z,1.63
2018-12-17T17:16:00.610Z,1.71
2018-12-17T17:18:29.538Z,1.76
2018-12-17T17:20:58.366Z,1.64
2018-12-17T17:23:28.362Z,1.69
2018-12-17T17:25:57.218Z,1.73
2018-12-17T17:28:26.132Z,1.72
2018-12-17T17:30:55.026Z,1.72
2018-12-17T17:33:26.042Z,1.74
2018-12-17T17:35:54.981Z,1.75
2018-12-17T17:38:23.833Z,1.76
2018-12-17T17:40:52.655Z,1.78
2018-12-17T17:43:21.648Z,1.90
2018-12-17T17:45:50.522Z,1.81
2018-12-17T17:48:19.403Z,1.84
2018-12-17T17:50:48.431Z,1.77
2018-12-17T17:53:17.255Z,1.77
2018-12-17T17:55:46.095Z,1.77
2018-12-17T17:58:14.933Z,1.82
2018-12-17T18:00:43.771Z,1.79
2018-12-17T18:03:12.647Z,1.80
2018-12-17T18:05:41.503Z,1.71
2018-12-17T18:08:10.425Z,1.73
2018-12-17T18:10:39.323Z,1.74
2018-12-17T18:13:08.350Z,1.83
2018-12-17T18:15:37.219Z,1.75
2018-12-17T18:18:06.151Z,1.73
2018-12-17T18:20:34.998Z,1.76
2018-12-17T18:23:04.084Z,1.73
2018-12-17T18:25:33.512Z,1.68
2018-12-17T18:28:02.596Z,1.72
2018-12-17T18:30:31.469Z,1.74
2018-12-17T18:33:03.326Z,1.63
2018-12-17T18:35:32.320Z,1.67
2018-12-17T18:38:01.408Z,1.71
2018-12-17T18:40:30.258Z,1.72
2018-12-17T18:42:59.897Z,1.67
2018-12-17T18:45:29.014Z,1.70
2018-12-17T18:47:58.193Z,1.75
2018-12-17T18:50:27.193Z,1.70
2018-12-17T18:52:56.135Z,1.70
2018-12-17T18:55:25.159Z,1.68
2018-12-17T18:57:54.155Z,1.73
2018-12-17T19:00:23.199Z,1.71
2018-12-17T19:02:52.325Z,1.70
2018-12-17T19:05:27.944Z,1.71
2018-12-17T19:07:56.906Z,1.66
2018-12-17T19:10:30.267Z,1.70
2018-12-17T19:12:59.323Z,1.76
2018-12-17T19:15:28.706Z,1.71
2018-12-17T19:17:57.680Z,1.68
2018-12-17T19:20:26.878Z,1.65
2018-12-17T19:22:55.807Z,1.68
2018-12-17T19:25:24.846Z,1.62
2018-12-17T19:27:54.522Z,1.67
2018-12-17T19:30:23.556Z,1.69
2018-12-17T19:32:52.394Z,1.63
2018-12-17T19:35:21.430Z,1.67
2018-12-17T19:37:50.552Z,1.66
2018-12-17T19:40:19.482Z,1.62
2018-12-17T19:42:48.350Z,1.59
2018-12-17T19:45:17.284Z,1.63
2018-12-17T19:47:46.350Z,1.89
2018-12-17T19:50:15.349Z,1.84
2018-12-17T19:52:44.320Z,1.77
2018-12-17T19:55:13.416Z,1.70
2018-12-17T19:57:42.523Z,1.66
2018-12-17T20:00:11.477Z,1.69
2018-12-17T20:02:47.038Z,1.69
2018-12-17T20:05:13.368Z,1.62
2018-12-17T20:07:42.347Z,1.62
2018-12-17T20:10:15.626Z,1.63
2018-12-17T20:12:44.595Z,1.63
2018-12-17T20:15:13.545Z,1.61
2018-12-17T20:17:42.378Z,1.77
2018-12-17T20:20:11.328Z,1.71
2018-12-17T20:22:41.217Z,1.70
2018-12-17T20:25:10.072Z,1.71
2018-12-17T20:27:38.999Z,1.70
2018-12-17T20:30:09.635Z,1.73
2018-12-17T20:32:39.015Z,1.66
2018-12-17T20:35:08.664Z,1.58
2018-12-17T20:37:37.588Z,1.59
2018-12-17T20:40:08.227Z,1.57
2018-12-17T20:42:37.186Z,1.61
2018-12-17T20:45:07.919Z,1.58
2018-12-17T20:47:37.914Z,1.52
2018-12-17T20:50:07.596Z,1.60
2018-12-17T20:52:36.504Z,1.61
2018-12-17T20:55:05.618Z,1.58
2018-12-17T20:57:34.530Z,1.46
2018-12-17T21:00:03.948Z,1.47
2018-12-17T21:02:34.761Z,1.44
2018-12-17T21:05:03.966Z,1.50
2018-12-17T21:07:33.203Z,1.64
2018-12-17T21:10:02.046Z,1.56
2018-12-17T21:12:30.935Z,1.59
2018-12-17T21:14:59.824Z,1.62
2018-12-17T21:17:28.922Z,1.67
2018-12-17T21:19:57.773Z,1.60
2018-12-17T21:22:26.692Z,1.60
2018-12-17T21:24:55.639Z,1.56
2018-12-17T21:27:24.837Z,1.54
2018-12-17T21:29:53.660Z,1.64
2018-12-17T21:32:22.616Z,1.60
2018-12-17T21:34:51.523Z,1.61
2018-12-17T21:37:20.702Z,1.56
2018-12-17T21:39:49.574Z,1.53
2018-12-17T21:42:18.470Z,1.54
2018-12-17T21:44:47.418Z,1.59
2018-12-17T21:47:16.436Z,1.88
2018-12-17T21:49:45.331Z,1.73
2018-12-17T21:52:14.196Z,1.82
2018-12-17T21:54:43.266Z,1.91
2018-12-17T21:57:12.133Z,1.96
2018-12-17T21:59:41.079Z,1.86
2018-12-17T22:02:10.011Z,1.87
2018-12-17T22:04:38.937Z,1.73
2018-12-17T22:07:07.848Z,1.66
2018-12-17T22:09:36.786Z,1.61
2018-12-17T22:12:05.787Z,1.61
2018-12-17T22:14:34.644Z,1.60
2018-12-17T22:17:03.857Z,1.59
2018-12-17T22:19:32.767Z,1.58
2018-12-17T22:22:01.728Z,1.60
2018-12-17T22:24:30.642Z,1.68
2018-12-17T22:26:59.476Z,1.61
2018-12-17T22:29:28.434Z,1.58
2018-12-17T22:31:57.330Z,1.57
2018-12-17T22:34:26.234Z,1.60
2018-12-17T22:36:55.142Z,1.58
2018-12-17T22:39:24.082Z,1.58
2018-12-17T22:41:52.937Z,1.56
2018-12-17T22:44:21.777Z,1.53
2018-12-17T22:46:50.700Z,1.55
2018-12-17T22:49:19.675Z,1.61
2018-12-17T22:51:48.588Z,1.64
2018-12-17T22:54:17.475Z,1.67
2018-12-17T22:56:46.408Z,1.66
2018-12-17T22:59:15.230Z,1.62
2018-12-17T23:01:44.162Z,1.54
2018-12-17T23:04:13.030Z,1.62
2018-12-17T23:06:41.846Z,1.63
2018-12-17T23:09:09.736Z,1.61
2018-12-17T23:11:57.354Z,1.64
2018-12-17T23:14:38.565Z,1.66
2018-12-17T23:17:18.904Z,1.64
2018-12-17T23:19:49.743Z,1.60
2018-12-17T23:22:20.995Z,1.64
2018-12-17T23:24:51.993Z,1.66
2018-12-17T23:27:20.981Z,1.63
2018-12-17T23:29:49.859Z,1.72
2018-12-17T23:32:18.787Z,1.68
2018-12-17T23:34:47.679Z,1.73
2018-12-17T23:37:16.946Z,1.67
2018-12-17T23:39:45.787Z,1.64
2018-12-17T23:42:14.672Z,1.63
2018-12-17T23:44:43.562Z,1.62
2018-12-17T23:47:12.482Z,1.74
2018-12-17T23:49:41.311Z,1.72
2018-12-17T23:52:10.254Z,1.70
2018-12-17T23:54:39.235Z,1.64
2018-12-17T23:57:08.058Z,1.66
2018-12-17T23:59:36.923Z,1.58
